sensor_id;sensor_type;location;lat;lon;timestamp;pressure;altitude;pressure_sealevel;temperature;humidity
25430;BME280;13360;48.152;-1.788;2023-06-22T00:01:49;101858.28;;;21.42;100.00
25430;BME280;13360;48.152;-1.788;2023-06-22T00:04:15;101882.63;;;21.38;100.00
25430;BME280;13360;48.152;-1.788;2023-06-22T00:06:40;101906.97;;;21.34;100.00
25430;BME280;13360;48.152;-1.788;2023-06-22T00:09:05;101909.63;;;21.30;100.00
25430;BME280;13360;48.152;-1.788;2023-06-22T00:11:32;101932.47;;;21.28;100.00
25430;BME280;13360;48.152;-1.788;2023-06-22T00:13:58;101939.25;;;21.27;100.00
25430;BME280;13360;48.152;-1.788;2023-06-22T00:16:23;101948.03;;;21.26;100.00
25430;BME280;13360;48.152;-1.788;2023-06-22T00:18:48;101955.97;;;21.24;100.00
25430;BME280;13360;48.152;-1.788;2023-06-22T00:21:14;101973.66;;;21.24;100.00
25430;BME280;13360;48.152;-1.788;2023-06-22T00:23:39;101979.75;;;21.26;100.00
25430;BME280;13360;48.152;-1.788;2023-06-22T00:26:04;101991.81;;;21.27;100.00
25430;BME280;13360;48.152;-1.788;2023-06-22T00:28:29;101998.25;;;21.27;100.00
25430;BME280;13360;48.152;-1.788;2023-06-22T00:30:55;101997.44;;;21.27;100.00
25430;BME280;13360;48.152;-1.788;2023-06-22T00:33:20;102026.22;;;21.24;100.00
25430;BME280;13360;48.152;-1.788;2023-06-22T00:35:46;102030.13;;;21.23;100.00
25430;BME280;13360;48.152;-1.788;2023-06-22T00:38:11;102043.69;;;21.21;100.00
25430;BME280;13360;48.152;-1.788;2023-06-22T00:40:36;102037.94;;;21.17;100.00
25430;BME280;13360;48.152;-1.788;2023-06-22T00:43:02;102047.03;;;21.14;100.00
25430;BME280;13360;48.152;-1.788;2023-06-22T00:45:27;102058.59;;;21.13;100.00
25430;BME280;13360;48.152;-1.788;2023-06-22T00:47:53;102064.56;;;21.11;100.00
25430;BME280;13360;48.152;-1.788;2023-06-22T00:50:20;102080.94;;;21.09;100.00
25430;BME280;13360;48.152;-1.788;2023-06-22T00:52:47;102095.31;;;21.08;100.00
25430;BME280;13360;48.152;-1.788;2023-06-22T00:55:13;102116.16;;;21.07;100.00
25430;BME280;13360;48.152;-1.788;2023-06-22T00:57:39;102131.00;;;21.07;100.00
25430;BME280;13360;48.152;-1.788;2023-06-22T01:00:05;102132.19;;;21.06;100.00
25430;BME280;13360;48.152;-1.788;2023-06-22T01:02:34;102136.13;;;21.05;100.00
25430;BME280;13360;48.152;-1.788;2023-06-22T01:04:59;102143.22;;;21.02;100.00
25430;BME280;13360;48.152;-1.788;2023-06-22T01:10:04;102173.47;;;20.97;100.00
25430;BME280;13360;48.152;-1.788;2023-06-22T01:12:32;102177.28;;;20.92;100.00
25430;BME280;13360;48.152;-1.788;2023-06-22T01:15:04;102201.25;;;20.90;100.00
25430;BME280;13360;48.152;-1.788;2023-06-22T01:17:33;102218.78;;;20.87;100.00
25430;BME280;13360;48.152;-1.788;2023-06-22T01:19:58;102238.44;;;20.87;100.00
25430;BME280;13360;48.152;-1.788;2023-06-22T01:22:26;102246.84;;;20.87;100.00
25430;BME280;13360;48.152;-1.788;2023-06-22T01:29:49;102273.63;;;20.84;100.00
25430;BME280;13360;48.152;-1.788;2023-06-22T01:32:15;102286.84;;;20.84;100.00
25430;BME280;13360;48.152;-1.788;2023-06-22T01:34:41;102278.75;;;20.82;100.00
25430;BME280;13360;48.152;-1.788;2023-06-22T01:37:07;102282.03;;;20.84;100.00
25430;BME280;13360;48.152;-1.788;2023-06-22T01:39:32;102305.97;;;20.82;100.00
25430;BME280;13360;48.152;-1.788;2023-06-22T01:41:58;102301.22;;;20.82;100.00
25430;BME280;13360;48.152;-1.788;2023-06-22T01:44:24;102310.75;;;20.81;100.00
25430;BME280;13360;48.152;-1.788;2023-06-22T01:46:50;102312.25;;;20.79;100.00
25430;BME280;13360;48.152;-1.788;2023-06-22T01:49:16;102315.06;;;20.79;100.00
25430;BME280;13360;48.152;-1.788;2023-06-22T01:51:42;102301.00;;;20.79;100.00
25430;BME280;13360;48.152;-1.788;2023-06-22T01:54:07;102303.00;;;20.78;100.00
25430;BME280;13360;48.152;-1.788;2023-06-22T01:56:33;102301.00;;;20.79;100.00
25430;BME280;13360;48.152;-1.788;2023-06-22T01:59:00;102284.00;;;20.75;100.00
25430;BME280;13360;48.152;-1.788;2023-06-22T02:01:31;102288.78;;;20.75;100.00
25430;BME280;13360;48.152;-1.788;2023-06-22T02:04:00;102277.72;;;20.78;100.00
25430;BME280;13360;48.152;-1.788;2023-06-22T02:06:29;102277.22;;;20.76;100.00
25430;BME280;13360;48.152;-1.788;2023-06-22T02:09:01;102283.19;;;20.75;100.00
25430;BME280;13360;48.152;-1.788;2023-06-22T02:11:27;102282.34;;;20.74;100.00
25430;BME280;13360;48.152;-1.788;2023-06-22T02:13:53;102284.66;;;20.72;100.00
25430;BME280;13360;48.152;-1.788;2023-06-22T02:16:20;102274.91;;;20.69;100.00
25430;BME280;13360;48.152;-1.788;2023-06-22T02:18:48;102275.09;;;20.64;100.00
25430;BME280;13360;48.152;-1.788;2023-06-22T02:21:20;102285.81;;;20.62;100.00
25430;BME280;13360;48.152;-1.788;2023-06-22T02:23:46;102285.47;;;20.55;100.00
25430;BME280;13360;48.152;-1.788;2023-06-22T02:26:11;102294.69;;;20.56;100.00
25430;BME280;13360;48.152;-1.788;2023-06-22T02:28:37;102314.34;;;20.56;100.00
25430;BME280;13360;48.152;-1.788;2023-06-22T02:31:02;102323.94;;;20.55;100.00
25430;BME280;13360;48.152;-1.788;2023-06-22T02:33:27;102319.78;;;20.52;100.00
25430;BME280;13360;48.152;-1.788;2023-06-22T02:35:52;102323.75;;;20.51;100.00
25430;BME280;13360;48.152;-1.788;2023-06-22T02:38:18;102333.50;;;20.54;100.00
25430;BME280;13360;48.152;-1.788;2023-06-22T02:40:44;102341.44;;;20.52;100.00
25430;BME280;13360;48.152;-1.788;2023-06-22T02:43:09;102351.00;;;20.51;100.00
25430;BME280;13360;48.152;-1.788;2023-06-22T02:45:35;102352.47;;;20.48;100.00
25430;BME280;13360;48.152;-1.788;2023-06-22T02:48:00;102348.53;;;20.49;100.00
25430;BME280;13360;48.152;-1.788;2023-06-22T02:50:25;102344.06;;;20.48;100.00
25430;BME280;13360;48.152;-1.788;2023-06-22T02:52:50;102351.16;;;20.46;100.00
25430;BME280;13360;48.152;-1.788;2023-06-22T02:55:16;102361.56;;;20.45;100.00
25430;BME280;13360;48.152;-1.788;2023-06-22T02:57:41;102369.16;;;20.45;100.00
25430;BME280;13360;48.152;-1.788;2023-06-22T03:00:09;102363.03;;;20.43;100.00
25430;BME280;13360;48.152;-1.788;2023-06-22T03:02:43;102367.81;;;20.42;100.00
25430;BME280;13360;48.152;-1.788;2023-06-22T03:05:09;102367.81;;;20.42;100.00
25430;BME280;13360;48.152;-1.788;2023-06-22T03:07:38;102379.63;;;20.39;100.00
25430;BME280;13360;48.152;-1.788;2023-06-22T03:10:03;102380.78;;;20.38;100.00
25430;BME280;13360;48.152;-1.788;2023-06-22T03:12:29;102388.72;;;20.36;100.00
25430;BME280;13360;48.152;-1.788;2023-06-22T03:14:54;102393.00;;;20.33;100.00
25430;BME280;13360;48.152;-1.788;2023-06-22T03:17:19;102402.75;;;20.36;100.00
25430;BME280;13360;48.152;-1.788;2023-06-22T03:19:44;102410.31;;;20.35;100.00
25430;BME280;13360;48.152;-1.788;2023-06-22T03:22:10;102401.41;;;20.33;100.00
25430;BME280;13360;48.152;-1.788;2023-06-22T03:24:35;102403.88;;;20.35;100.00
25430;BME280;13360;48.152;-1.788;2023-06-22T03:27:02;102411.81;;;20.33;100.00
25430;BME280;13360;48.152;-1.788;2023-06-22T03:29:29;102420.22;;;20.33;100.00
25430;BME280;13360;48.152;-1.788;2023-06-22T03:31:55;102414.94;;;20.31;100.00
25430;BME280;13360;48.152;-1.788;2023-06-22T03:34:20;102408.31;;;20.27;100.00
25430;BME280;13360;48.152;-1.788;2023-06-22T03:36:45;102409.16;;;20.28;100.00
25430;BME280;13360;48.152;-1.788;2023-06-22T03:39:10;102417.88;;;20.26;100.00
25430;BME280;13360;48.152;-1.788;2023-06-22T03:41:36;102413.75;;;20.24;100.00
25430;BME280;13360;48.152;-1.788;2023-06-22T03:44:01;102419.47;;;20.19;100.00
25430;BME280;13360;48.152;-1.788;2023-06-22T03:46:26;102416.38;;;20.20;100.00
25430;BME280;13360;48.152;-1.788;2023-06-22T03:48:51;102416.38;;;20.20;100.00
25430;BME280;13360;48.152;-1.788;2023-06-22T03:51:17;102407.75;;;20.17;100.00
25430;BME280;13360;48.152;-1.788;2023-06-22T03:53:42;102415.66;;;20.15;100.00
25430;BME280;13360;48.152;-1.788;2023-06-22T03:56:08;102425.72;;;20.16;100.00
25430;BME280;13360;48.152;-1.788;2023-06-22T03:58:33;102429.69;;;20.15;100.00
25430;BME280;13360;48.152;-1.788;2023-06-22T04:01:00;102441.25;;;20.13;100.00
25430;BME280;13360;48.152;-1.788;2023-06-22T04:03:25;102439.56;;;20.12;100.00
25430;BME280;13360;48.152;-1.788;2023-06-22T04:05:50;102437.09;;;20.10;100.00
25430;BME280;13360;48.152;-1.788;2023-06-22T04:08:16;102439.91;;;20.10;100.00
25430;BME280;13360;48.152;-1.788;2023-06-22T04:10:41;102455.03;;;20.01;100.00
25430;BME280;13360;48.152;-1.788;2023-06-22T04:13:06;102459.81;;;20.00;100.00
25430;BME280;13360;48.152;-1.788;2023-06-22T04:15:32;102474.34;;;20.02;100.00
25430;BME280;13360;48.152;-1.788;2023-06-22T04:17:57;102471.03;;;20.00;100.00
25430;BME280;13360;48.152;-1.788;2023-06-22T04:20:22;102481.44;;;20.00;100.00
25430;BME280;13360;48.152;-1.788;2023-06-22T04:22:50;102496.78;;;20.02;100.00
25430;BME280;13360;48.152;-1.788;2023-06-22T04:25:15;102508.00;;;20.02;100.00
25430;BME280;13360;48.152;-1.788;2023-06-22T04:27:40;102511.97;;;20.01;100.00
25430;BME280;13360;48.152;-1.788;2023-06-22T04:30:06;102504.97;;;19.99;100.00
25430;BME280;13360;48.152;-1.788;2023-06-22T04:32:32;102527.75;;;19.97;100.00
25430;BME280;13360;48.152;-1.788;2023-06-22T04:34:57;102534.19;;;19.98;100.00
25430;BME280;13360;48.152;-1.788;2023-06-22T04:37:22;102538.63;;;19.99;100.00
25430;BME280;13360;48.152;-1.788;2023-06-22T04:39:48;102545.38;;;19.98;100.00
25430;BME280;13360;48.152;-1.788;2023-06-22T04:42:14;102547.50;;;19.92;100.00
25430;BME280;13360;48.152;-1.788;2023-06-22T04:44:39;102547.50;;;19.92;100.00
25430;BME280;13360;48.152;-1.788;2023-06-22T04:47:05;102561.00;;;19.90;100.00
25430;BME280;13360;48.152;-1.788;2023-06-22T04:49:33;102562.78;;;19.86;100.00
25430;BME280;13360;48.152;-1.788;2023-06-22T04:52:01;102567.25;;;19.87;100.00
25430;BME280;13360;48.152;-1.788;2023-06-22T04:54:27;102582.41;;;19.86;100.00
25430;BME280;13360;48.152;-1.788;2023-06-22T04:56:52;102601.53;;;19.84;100.00
25430;BME280;13360;48.152;-1.788;2023-06-22T04:59:24;102609.13;;;19.84;100.00
25430;BME280;13360;48.152;-1.788;2023-06-22T05:01:59;102636.34;;;19.83;100.00
25430;BME280;13360;48.152;-1.788;2023-06-22T05:04:25;102638.00;;;19.84;100.00
25430;BME280;13360;48.152;-1.788;2023-06-22T05:06:52;102634.16;;;19.80;100.00
25430;BME280;13360;48.152;-1.788;2023-06-22T05:09:17;102652.66;;;19.81;100.00
25430;BME280;13360;48.152;-1.788;2023-06-22T05:11:43;102657.09;;;19.82;100.00
25430;BME280;13360;48.152;-1.788;2023-06-22T05:14:08;102666.34;;;19.83;100.00
25430;BME280;13360;48.152;-1.788;2023-06-22T05:16:34;102678.06;;;19.85;100.00
25430;BME280;13360;48.152;-1.788;2023-06-22T05:18:59;102676.41;;;19.84;100.00
25430;BME280;13360;48.152;-1.788;2023-06-22T05:21:25;102671.13;;;19.82;100.00
25430;BME280;13360;48.152;-1.788;2023-06-22T05:23:51;102684.84;;;19.84;100.00
25430;BME280;13360;48.152;-1.788;2023-06-22T05:26:17;102685.66;;;19.84;100.00
25430;BME280;13360;48.152;-1.788;2023-06-22T05:28:43;102701.34;;;19.85;100.00
25430;BME280;13360;48.152;-1.788;2023-06-22T05:31:10;102702.16;;;19.86;100.00
25430;BME280;13360;48.152;-1.788;2023-06-22T05:33:36;102722.63;;;19.86;100.00
25430;BME280;13360;48.152;-1.788;2023-06-22T05:36:01;102751.50;;;19.87;100.00
25430;BME280;13360;48.152;-1.788;2023-06-22T05:38:26;102787.66;;;19.88;100.00
25430;BME280;13360;48.152;-1.788;2023-06-22T05:40:51;102789.09;;;19.86;100.00
25430;BME280;13360;48.152;-1.788;2023-06-22T05:43:17;102807.59;;;19.87;100.00
25430;BME280;13360;48.152;-1.788;2023-06-22T05:45:42;102826.38;;;19.86;100.00
25430;BME280;13360;48.152;-1.788;2023-06-22T05:48:07;102856.63;;;19.89;100.00
25430;BME280;13360;48.152;-1.788;2023-06-22T05:50:32;102876.75;;;19.91;100.00
25430;BME280;13360;48.152;-1.788;2023-06-22T05:52:58;102891.31;;;19.93;100.00
25430;BME280;13360;48.152;-1.788;2023-06-22T05:55:23;102892.13;;;19.94;100.00
25430;BME280;13360;48.152;-1.788;2023-06-22T05:57:48;102900.25;;;19.95;100.00
25430;BME280;13360;48.152;-1.788;2023-06-22T06:00:17;102911.47;;;19.95;100.00
25430;BME280;13360;48.152;-1.788;2023-06-22T06:02:42;102920.41;;;19.97;100.00
25430;BME280;13360;48.152;-1.788;2023-06-22T06:05:11;102934.13;;;19.99;100.00
25430;BME280;13360;48.152;-1.788;2023-06-22T06:07:39;102943.38;;;19.99;100.00
25430;BME280;13360;48.152;-1.788;2023-06-22T06:10:04;102959.91;;;20.01;100.00
25430;BME280;13360;48.152;-1.788;2023-06-22T06:12:31;102966.56;;;20.05;100.00
25430;BME280;13360;48.152;-1.788;2023-06-22T06:14:56;102975.28;;;20.03;100.00
25430;BME280;13360;48.152;-1.788;2023-06-22T06:17:21;102980.28;;;20.06;100.00
25430;BME280;13360;48.152;-1.788;2023-06-22T06:19:46;103000.44;;;20.08;100.00
25430;BME280;13360;48.152;-1.788;2023-06-22T06:22:12;103003.78;;;20.10;100.00
25430;BME280;13360;48.152;-1.788;2023-06-22T06:24:37;103016.34;;;20.13;100.00
25430;BME280;13360;48.152;-1.788;2023-06-22T06:27:02;103016.13;;;20.09;100.00
25430;BME280;13360;48.152;-1.788;2023-06-22T06:29:29;103032.03;;;20.14;100.00
25430;BME280;13360;48.152;-1.788;2023-06-22T06:31:55;103040.16;;;20.16;100.00
25430;BME280;13360;48.152;-1.788;2023-06-22T06:34:20;103052.19;;;20.16;100.00
25430;BME280;13360;48.152;-1.788;2023-06-22T06:36:45;103057.50;;;20.18;100.00
25430;BME280;13360;48.152;-1.788;2023-06-22T06:39:10;103061.97;;;20.19;100.00
25430;BME280;13360;48.152;-1.788;2023-06-22T06:41:36;103085.88;;;20.16;100.00
25430;BME280;13360;48.152;-1.788;2023-06-22T06:44:02;103110.28;;;20.16;100.00
25430;BME280;13360;48.152;-1.788;2023-06-22T06:46:27;103125.16;;;20.16;100.00
25430;BME280;13360;48.152;-1.788;2023-06-22T06:48:52;103127.13;;;20.16;100.00
25430;BME280;13360;48.152;-1.788;2023-06-22T06:51:18;103131.59;;;20.17;100.00
25430;BME280;13360;48.152;-1.788;2023-06-22T06:53:43;103135.03;;;20.14;100.00
25430;BME280;13360;48.152;-1.788;2023-06-22T06:56:08;103138.03;;;20.17;100.00
25430;BME280;13360;48.152;-1.788;2023-06-22T06:58:35;103143.06;;;20.20;100.00
25430;BME280;13360;48.152;-1.788;2023-06-22T07:01:01;103149.75;;;20.24;100.00
25430;BME280;13360;48.152;-1.788;2023-06-22T07:03:27;103159.00;;;20.25;100.00
25430;BME280;13360;48.152;-1.788;2023-06-22T07:05:52;103179.16;;;20.27;100.00
25430;BME280;13360;48.152;-1.788;2023-06-22T07:08:18;103178.25;;;20.31;100.00
25430;BME280;13360;48.152;-1.788;2023-06-22T07:10:43;103161.31;;;20.36;100.00
25430;BME280;13360;48.152;-1.788;2023-06-22T07:13:08;103169.44;;;20.38;100.00
25430;BME280;13360;48.152;-1.788;2023-06-22T07:15:33;103162.13;;;20.42;100.00
25430;BME280;13360;48.152;-1.788;2023-06-22T07:17:58;103145.28;;;20.42;100.00
25430;BME280;13360;48.152;-1.788;2023-06-22T07:20:24;103142.38;;;20.47;100.00
25430;BME280;13360;48.152;-1.788;2023-06-22T07:22:49;103133.88;;;20.52;100.00
25430;BME280;13360;48.152;-1.788;2023-06-22T07:25:14;103115.25;;;20.56;100.00
25430;BME280;13360;48.152;-1.788;2023-06-22T07:27:43;103111.53;;;20.61;100.00
25430;BME280;13360;48.152;-1.788;2023-06-22T07:30:08;103092.41;;;20.63;100.00
25430;BME280;13360;48.152;-1.788;2023-06-22T07:32:34;103083.06;;;20.67;100.00
25430;BME280;13360;48.152;-1.788;2023-06-22T07:34:59;103083.59;;;20.69;100.00
25430;BME280;13360;48.152;-1.788;2023-06-22T07:37:25;103072.75;;;20.77;100.00
25430;BME280;13360;48.152;-1.788;2023-06-22T07:39:52;103065.94;;;20.83;100.00
25430;BME280;13360;48.152;-1.788;2023-06-22T07:42:18;103029.69;;;20.81;100.00
25430;BME280;13360;48.152;-1.788;2023-06-22T07:44:44;103024.91;;;20.82;100.00
25430;BME280;13360;48.152;-1.788;2023-06-22T07:47:09;102972.69;;;20.81;100.00
25430;BME280;13360;48.152;-1.788;2023-06-22T07:49:34;102967.50;;;20.88;100.00
25430;BME280;13360;48.152;-1.788;2023-06-22T07:52:00;102965.41;;;20.93;100.00
25430;BME280;13360;48.152;-1.788;2023-06-22T07:54:26;102973.09;;;21.01;100.00
25430;BME280;13360;48.152;-1.788;2023-06-22T07:56:51;102976.00;;;21.10;100.00
25430;BME280;13360;48.152;-1.788;2023-06-22T07:59:18;102960.69;;;21.16;100.00
25430;BME280;13360;48.152;-1.788;2023-06-22T08:01:43;102952.41;;;21.25;100.00
25430;BME280;13360;48.152;-1.788;2023-06-22T08:04:08;102937.25;;;21.35;100.00
25430;BME280;13360;48.152;-1.788;2023-06-22T08:06:34;102930.13;;;21.51;100.00
25430;BME280;13360;48.152;-1.788;2023-06-22T08:08:59;102894.84;;;21.67;100.00
25430;BME280;13360;48.152;-1.788;2023-06-22T08:11:24;102854.50;;;21.72;100.00
25430;BME280;13360;48.152;-1.788;2023-06-22T08:13:50;102822.94;;;21.75;100.00
25430;BME280;13360;48.152;-1.788;2023-06-22T08:16:15;102782.72;;;21.74;100.00
25430;BME280;13360;48.152;-1.788;2023-06-22T08:18:41;102756.91;;;21.72;100.00
25430;BME280;13360;48.152;-1.788;2023-06-22T08:21:06;102743.19;;;21.79;100.00
25430;BME280;13360;48.152;-1.788;2023-06-22T08:23:31;102696.38;;;21.83;100.00
25430;BME280;13360;48.152;-1.788;2023-06-22T08:25:56;102687.16;;;21.91;100.00
25430;BME280;13360;48.152;-1.788;2023-06-22T08:28:22;102663.50;;;22.01;100.00
25430;BME280;13360;48.152;-1.788;2023-06-22T08:30:47;102623.66;;;22.08;100.00
25430;BME280;13360;48.152;-1.788;2023-06-22T08:33:13;102600.97;;;22.39;100.00
25430;BME280;13360;48.152;-1.788;2023-06-22T08:35:38;102575.94;;;22.55;100.00
25430;BME280;13360;48.152;-1.788;2023-06-22T08:38:04;102521.72;;;22.66;100.00
25430;BME280;13360;48.152;-1.788;2023-06-22T08:40:29;102469.03;;;22.67;100.00
25430;BME280;13360;48.152;-1.788;2023-06-22T08:42:54;102444.09;;;22.57;100.00
25430;BME280;13360;48.152;-1.788;2023-06-22T08:45:20;102433.50;;;22.45;100.00
25430;BME280;13360;48.152;-1.788;2023-06-22T08:47:45;102446.75;;;22.44;100.00
25430;BME280;13360;48.152;-1.788;2023-06-22T08:50:10;102408.50;;;22.43;100.00
25430;BME280;13360;48.152;-1.788;2023-06-22T08:52:36;102378.72;;;22.42;100.00
25430;BME280;13360;48.152;-1.788;2023-06-22T08:55:02;102339.63;;;22.41;100.00
25430;BME280;13360;48.152;-1.788;2023-06-22T08:57:28;102334.50;;;22.43;100.00
25430;BME280;13360;48.152;-1.788;2023-06-22T08:59:53;102285.13;;;22.45;100.00
25430;BME280;13360;48.152;-1.788;2023-06-22T09:02:23;102290.06;;;22.48;100.00
25430;BME280;13360;48.152;-1.788;2023-06-22T09:04:48;102283.78;;;22.51;100.00
25430;BME280;13360;48.152;-1.788;2023-06-22T09:07:14;102271.97;;;22.58;100.00
25430;BME280;13360;48.152;-1.788;2023-06-22T09:09:39;102261.81;;;22.66;100.00
25430;BME280;13360;48.152;-1.788;2023-06-22T09:12:05;102241.22;;;22.74;100.00
25430;BME280;13360;48.152;-1.788;2023-06-22T09:14:30;102251.59;;;22.82;100.00
25430;BME280;13360;48.152;-1.788;2023-06-22T09:16:55;102216.56;;;22.92;100.00
25430;BME280;13360;48.152;-1.788;2023-06-22T09:19:21;102204.28;;;23.08;100.00
25430;BME280;13360;48.152;-1.788;2023-06-22T09:21:46;102175.69;;;23.19;100.00
25430;BME280;13360;48.152;-1.788;2023-06-22T09:24:11;102196.59;;;23.30;100.00
25430;BME280;13360;48.152;-1.788;2023-06-22T09:26:36;102168.22;;;23.35;100.00
25430;BME280;13360;48.152;-1.788;2023-06-22T09:29:04;102144.13;;;23.50;100.00
25430;BME280;13360;48.152;-1.788;2023-06-22T09:31:30;102114.91;;;23.66;100.00
25430;BME280;13360;48.152;-1.788;2023-06-22T09:33:55;102107.13;;;24.00;100.00
25430;BME280;13360;48.152;-1.788;2023-06-22T09:36:21;102067.94;;;24.51;100.00
25430;BME280;13360;48.152;-1.788;2023-06-22T09:38:47;102013.81;;;25.24;100.00
25430;BME280;13360;48.152;-1.788;2023-06-22T09:41:12;101943.47;;;25.93;100.00
25430;BME280;13360;48.152;-1.788;2023-06-22T09:43:37;101827.13;;;26.43;100.00
25430;BME280;13360;48.152;-1.788;2023-06-22T09:46:02;101769.69;;;26.69;100.00
25430;BME280;13360;48.152;-1.788;2023-06-22T09:48:28;101725.66;;;26.49;100.00
25430;BME280;13360;48.152;-1.788;2023-06-22T09:50:54;101688.69;;;25.89;100.00
25430;BME280;13360;48.152;-1.788;2023-06-22T09:53:20;101683.22;;;25.35;100.00
25430;BME280;13360;48.152;-1.788;2023-06-22T09:55:45;101684.88;;;25.16;100.00
25430;BME280;13360;48.152;-1.788;2023-06-22T09:58:10;101711.06;;;25.13;100.00
25430;BME280;13360;48.152;-1.788;2023-06-22T10:00:35;101710.69;;;25.15;100.00
25430;BME280;13360;48.152;-1.788;2023-06-22T10:03:01;101755.28;;;25.21;100.00
25430;BME280;13360;48.152;-1.788;2023-06-22T10:05:26;101735.13;;;25.23;100.00
25430;BME280;13360;48.152;-1.788;2023-06-22T10:07:51;101724.56;;;25.20;100.00
25430;BME280;13360;48.152;-1.788;2023-06-22T10:10:16;101699.53;;;24.83;100.00
25430;BME280;13360;48.152;-1.788;2023-06-22T10:12:45;101693.78;;;24.60;100.00
25430;BME280;13360;48.152;-1.788;2023-06-22T10:15:11;101714.34;;;24.42;100.00
25430;BME280;13360;48.152;-1.788;2023-06-22T10:17:36;101713.56;;;24.60;100.00
25430;BME280;13360;48.152;-1.788;2023-06-22T10:20:02;101713.91;;;25.13;100.00
25430;BME280;13360;48.152;-1.788;2023-06-22T10:22:35;101697.00;;;25.17;100.00
25430;BME280;13360;48.152;-1.788;2023-06-22T10:25:01;101694.34;;;25.05;100.00
25430;BME280;13360;48.152;-1.788;2023-06-22T10:27:26;101710.63;;;25.11;100.00
25430;BME280;13360;48.152;-1.788;2023-06-22T10:29:51;101730.94;;;25.59;100.00
25430;BME280;13360;48.152;-1.788;2023-06-22T10:32:16;101684.53;;;26.32;100.00
25430;BME280;13360;48.152;-1.788;2023-06-22T10:34:42;101661.19;;;27.36;100.00
25430;BME280;13360;48.152;-1.788;2023-06-22T10:37:07;101653.28;;;28.00;100.00
25430;BME280;13360;48.152;-1.788;2023-06-22T10:39:32;101658.47;;;28.49;100.00
25430;BME280;13360;48.152;-1.788;2023-06-22T10:41:57;101648.09;;;28.82;100.00
25430;BME280;13360;48.152;-1.788;2023-06-22T10:44:22;101639.22;;;28.94;100.00
25430;BME280;13360;48.152;-1.788;2023-06-22T10:46:48;101632.75;;;29.04;100.00
25430;BME280;13360;48.152;-1.788;2023-06-22T10:49:13;101628.28;;;29.00;100.00
25430;BME280;13360;48.152;-1.788;2023-06-22T10:51:38;101634.06;;;28.34;100.00
25430;BME280;13360;48.152;-1.788;2023-06-22T10:54:03;101630.03;;;27.40;100.00
25430;BME280;13360;48.152;-1.788;2023-06-22T10:56:29;101626.03;;;26.73;100.00
25430;BME280;13360;48.152;-1.788;2023-06-22T10:58:54;101636.75;;;26.31;100.00
25430;BME280;13360;48.152;-1.788;2023-06-22T11:01:20;101647.72;;;26.06;100.00
25430;BME280;13360;48.152;-1.788;2023-06-22T11:03:45;101657.88;;;25.84;100.00
25430;BME280;13360;48.152;-1.788;2023-06-22T11:06:10;101641.38;;;25.67;100.00
25430;BME280;13360;48.152;-1.788;2023-06-22T11:08:36;101661.81;;;25.57;100.00
25430;BME280;13360;48.152;-1.788;2023-06-22T11:11:01;101651.91;;;25.43;100.00
25430;BME280;13360;48.152;-1.788;2023-06-22T11:13:26;101678.06;;;25.40;100.00
25430;BME280;13360;48.152;-1.788;2023-06-22T11:15:51;101678.56;;;25.23;100.00
25430;BME280;13360;48.152;-1.788;2023-06-22T11:18:17;101680.22;;;25.24;100.00
25430;BME280;13360;48.152;-1.788;2023-06-22T11:20:42;101676.84;;;25.18;100.00
25430;BME280;13360;48.152;-1.788;2023-06-22T11:23:07;101681.69;;;25.18;100.00
25430;BME280;13360;48.152;-1.788;2023-06-22T11:25:33;101689.59;;;25.09;100.00
25430;BME280;13360;48.152;-1.788;2023-06-22T11:28:01;101688.41;;;25.10;100.00
25430;BME280;13360;48.152;-1.788;2023-06-22T11:30:26;101702.84;;;25.05;100.00
25430;BME280;13360;48.152;-1.788;2023-06-22T11:32:52;101699.13;;;25.01;100.00
25430;BME280;13360;48.152;-1.788;2023-06-22T11:35:17;101713.25;;;25.01;100.00
25430;BME280;13360;48.152;-1.788;2023-06-22T11:37:42;101707.97;;;24.99;100.00
25430;BME280;13360;48.152;-1.788;2023-06-22T11:40:08;101720.34;;;24.94;100.00
25430;BME280;13360;48.152;-1.788;2023-06-22T11:42:34;101715.13;;;24.97;100.00
25430;BME280;13360;48.152;-1.788;2023-06-22T11:44:59;101733.72;;;24.98;100.00
25430;BME280;13360;48.152;-1.788;2023-06-22T11:47:24;101690.06;;;24.95;100.00
25430;BME280;13360;48.152;-1.788;2023-06-22T11:49:50;101720.78;;;24.97;100.00
25430;BME280;13360;48.152;-1.788;2023-06-22T11:52:15;101722.41;;;24.98;100.00
25430;BME280;13360;48.152;-1.788;2023-06-22T11:54:42;101725.63;;;24.96;100.00
25430;BME280;13360;48.152;-1.788;2023-06-22T11:57:08;101740.13;;;24.94;100.00
25430;BME280;13360;48.152;-1.788;2023-06-22T11:59:33;101736.03;;;24.92;100.00
25430;BME280;13360;48.152;-1.788;2023-06-22T12:01:58;101736.03;;;24.92;100.00
25430;BME280;13360;48.152;-1.788;2023-06-22T12:04:23;101742.06;;;24.90;100.00
25430;BME280;13360;48.152;-1.788;2023-06-22T12:06:49;101743.63;;;24.88;100.00
25430;BME280;13360;48.152;-1.788;2023-06-22T12:09:14;101742.34;;;24.85;100.00
25430;BME280;13360;48.152;-1.788;2023-06-22T12:11:39;101725.78;;;24.84;100.00
25430;BME280;13360;48.152;-1.788;2023-06-22T12:14:05;101717.31;;;24.84;100.00
25430;BME280;13360;48.152;-1.788;2023-06-22T12:16:30;101740.78;;;24.88;100.00
25430;BME280;13360;48.152;-1.788;2023-06-22T12:18:55;101722.13;;;24.83;100.00
25430;BME280;13360;48.152;-1.788;2023-06-22T12:21:20;101732.63;;;24.83;100.00
25430;BME280;13360;48.152;-1.788;2023-06-22T12:23:46;101722.88;;;24.80;100.00
25430;BME280;13360;48.152;-1.788;2023-06-22T12:26:11;101730.16;;;24.81;100.00
25430;BME280;13360;48.152;-1.788;2023-06-22T12:28:36;101707.38;;;24.74;100.00
25430;BME280;13360;48.152;-1.788;2023-06-22T12:31:01;101721.59;;;24.78;100.00